ロゾー の空港の天気 - METARとTAF

ケインフィールド空港 ( TDCF / DCF ) - ドミニカ国 ロゾー
飛行場実況気象(Metar)
観測時間05/17 12:00 AST (05/17 16:00 UTC)
風向・風速南東 5m/s 瞬間風速10m/s
視程10km以上
天気現象
全天の4割程度の雲 雲底高度 670m
気温32℃
湿度52%
気圧1015hPa
METARTDCF 171600Z 14009G19KT 9999 SCT022 32/21 Q1015
過去の天気等 Google飛行場航空写真 Wunderground天気予報

過去48時間のMETAR

飛行場予報(TAF)
データがありません